createdAt,value
2023-04-29T00:01:02.204Z,49.54
2023-04-29T00:02:23.863Z,49.55
2023-04-29T00:03:49.649Z,49.47
2023-04-29T00:05:15.135Z,49.39
2023-04-29T00:06:38.044Z,49.40
2023-04-29T00:08:00.912Z,49.45
2023-04-29T00:09:30.840Z,49.47
2023-04-29T00:10:52.459Z,49.26
2023-04-29T00:12:18.609Z,49.68
2023-04-29T00:13:43.134Z,49.53
2023-04-29T00:15:06.594Z,49.60
2023-04-29T00:16:30.721Z,49.71
2023-04-29T00:17:52.334Z,49.54
2023-04-29T00:19:17.760Z,49.31
2023-04-29T00:20:40.557Z,49.23
2023-04-29T00:22:03.689Z,49.68
2023-04-29T00:23:24.897Z,49.82
2023-04-29T00:24:47.332Z,49.76
2023-04-29T00:26:10.048Z,49.76
2023-04-29T00:27:33.856Z,49.67
2023-04-29T00:28:56.487Z,49.98
2023-04-29T00:30:20.655Z,49.98
2023-04-29T00:31:43.156Z,50.04
2023-04-29T00:33:12.929Z,50.06
2023-04-29T00:34:39.063Z,50.24
2023-04-29T00:36:26.009Z,50.25
2023-04-29T00:37:48.549Z,50.35
2023-04-29T00:39:09.858Z,50.12
2023-04-29T00:40:32.551Z,50.18
2023-04-29T00:41:55.435Z,50.36
2023-04-29T00:43:19.382Z,50.39
2023-04-29T00:44:42.432Z,50.24
2023-04-29T00:46:07.249Z,50.43
2023-04-29T00:47:29.800Z,50.57
2023-04-29T00:48:54.581Z,50.71
2023-04-29T00:50:17.337Z,50.47
2023-04-29T00:51:41.225Z,50.52
2023-04-29T00:53:04.455Z,50.80
2023-04-29T00:54:27.254Z,50.72
2023-04-29T00:55:55.848Z,50.75
2023-04-29T00:57:19.905Z,50.75
2023-04-29T00:58:50.331Z,50.90
2023-04-29T01:00:14.175Z,50.94
2023-04-29T01:01:40.257Z,51.02
2023-04-29T01:03:03.083Z,51.00
2023-04-29T01:04:24.880Z,51.15
2023-04-29T01:06:00.195Z,51.28
2023-04-29T01:07:31.710Z,51.06
2023-04-29T01:09:05.165Z,51.12
2023-04-29T01:10:32.833Z,51.14
2023-04-29T01:12:07.025Z,51.24
2023-04-29T01:13:35.672Z,51.64
2023-04-29T01:15:07.220Z,51.33
2023-04-29T01:16:36.171Z,51.34
2023-04-29T01:18:07.345Z,51.37
2023-04-29T01:19:45.922Z,51.44
2023-04-29T01:21:08.341Z,51.46
2023-04-29T01:22:33.713Z,51.53
2023-04-29T01:23:57.487Z,51.27
2023-04-29T01:25:25.259Z,51.65
2023-04-29T01:27:11.617Z,51.11
2023-04-29T01:28:52.319Z,51.14
2023-04-29T01:30:29.142Z,51.49
2023-04-29T01:32:11.108Z,51.57
2023-04-29T01:33:42.926Z,51.60
2023-04-29T01:35:20.033Z,51.18
2023-04-29T01:36:57.810Z,51.26
2023-04-29T01:38:34.092Z,51.39
2023-04-29T01:40:06.907Z,51.41
2023-04-29T01:41:44.593Z,51.66
2023-04-29T01:43:16.509Z,51.62
2023-04-29T01:44:44.484Z,51.72
2023-04-29T01:46:12.924Z,51.91
2023-04-29T01:47:37.932Z,51.93
2023-04-29T01:49:03.742Z,52.02
2023-04-29T01:50:29.235Z,52.26
2023-04-29T01:51:57.860Z,52.08
2023-04-29T01:53:21.493Z,52.34
2023-04-29T01:54:44.690Z,52.17
2023-04-29T01:56:12.662Z,52.59
2023-04-29T01:57:55.040Z,52.26
2023-04-29T01:59:44.216Z,52.42
2023-04-29T02:01:29.690Z,52.47
2023-04-29T02:02:52.804Z,52.35
2023-04-29T02:04:33.912Z,52.53
2023-04-29T02:05:58.286Z,52.38
2023-04-29T02:07:30.852Z,52.60
2023-04-29T02:08:54.205Z,52.58
2023-04-29T02:10:18.609Z,52.72
2023-04-29T02:11:48.660Z,52.69
2023-04-29T02:13:12.485Z,52.82
2023-04-29T02:14:45.424Z,52.75
2023-04-29T02:16:12.061Z,52.76
2023-04-29T02:17:41.464Z,52.71
2023-04-29T02:19:04.440Z,52.73
2023-04-29T02:20:26.679Z,52.79
2023-04-29T02:21:49.977Z,52.82
2023-04-29T02:23:12.732Z,52.77
2023-04-29T02:24:35.686Z,52.42
2023-04-29T02:25:57.199Z,52.46
2023-04-29T02:27:24.501Z,52.56
2023-04-29T02:28:47.509Z,52.93
2023-04-29T02:30:14.668Z,52.95
2023-04-29T02:31:36.465Z,52.76
2023-04-29T02:32:58.862Z,52.90
2023-04-29T02:34:21.600Z,52.87
2023-04-29T02:35:48.048Z,52.83
2023-04-29T02:37:11.893Z,53.13
2023-04-29T02:38:34.278Z,53.26
2023-04-29T02:40:01.660Z,53.40
2023-04-29T02:41:25.938Z,53.19
2023-04-29T02:42:49.966Z,53.07
2023-04-29T02:44:11.415Z,53.33
2023-04-29T02:45:33.785Z,53.23
2023-04-29T02:50:13.299Z,53.02
2023-04-29T02:51:43.049Z,53.13
2023-04-29T02:53:09.402Z,53.14
2023-04-29T02:54:33.197Z,53.19
2023-04-29T02:56:12.843Z,53.26
2023-04-29T02:57:34.343Z,53.11
2023-04-29T02:59:05.532Z,53.08
2023-04-29T03:00:52.953Z,52.87
2023-04-29T03:02:40.605Z,53.14
2023-04-29T03:05:49.082Z,53.03
2023-04-29T03:07:11.897Z,53.00
2023-04-29T03:08:37.817Z,53.03
2023-04-29T03:10:57.121Z,53.16
2023-04-29T03:12:19.345Z,52.99
2023-04-29T03:13:42.317Z,53.07
2023-04-29T03:15:13.228Z,53.22
2023-04-29T03:18:26.920Z,53.48
2023-04-29T03:19:54.730Z,53.32
2023-04-29T03:21:18.086Z,53.41
2023-04-29T03:22:40.205Z,53.46
2023-04-29T03:24:19.246Z,53.54
2023-04-29T03:25:44.535Z,53.55
2023-04-29T03:27:48.534Z,53.48
2023-04-29T03:29:44.879Z,53.64
2023-04-29T03:31:19.367Z,53.59
2023-04-29T03:32:42.500Z,53.77
2023-04-29T03:34:04.910Z,53.81
2023-04-29T03:35:30.761Z,54.01
2023-04-29T03:43:13.410Z,54.06
2023-04-29T03:44:37.226Z,54.21
2023-04-29T03:46:00.283Z,54.51
2023-04-29T03:47:23.321Z,54.72
2023-04-29T03:48:46.130Z,54.76
2023-04-29T03:50:09.289Z,55.00
2023-04-29T03:51:33.535Z,55.13
2023-04-29T03:53:44.200Z,55.21
2023-04-29T03:55:22.801Z,55.13
2023-04-29T03:57:03.772Z,55.27
2023-04-29T03:58:28.560Z,55.43
2023-04-29T04:00:08.463Z,55.63
2023-04-29T04:01:57.936Z,55.49
2023-04-29T04:03:26.016Z,55.44
2023-04-29T04:05:06.680Z,55.67
2023-04-29T04:06:46.022Z,55.50
2023-04-29T04:08:10.073Z,55.50
2023-04-29T04:09:31.464Z,55.53
2023-04-29T04:10:54.251Z,55.38
2023-04-29T04:13:37.785Z,55.38
2023-04-29T04:18:30.888Z,54.78
2023-04-29T04:25:47.673Z,54.57
2023-04-29T04:27:44.127Z,54.60
2023-04-29T04:29:35.176Z,54.74
2023-04-29T04:31:35.443Z,54.38
2023-04-29T04:33:49.955Z,54.35
2023-04-29T04:35:30.811Z,53.94
2023-04-29T04:43:37.345Z,53.55
2023-04-29T04:45:14.929Z,53.62
2023-04-29T04:47:27.693Z,53.31
2023-04-29T04:50:13.400Z,53.07
2023-04-29T04:54:14.025Z,52.83
2023-04-29T04:56:46.260Z,52.72
2023-04-29T04:58:40.245Z,52.31
2023-04-29T05:00:52.398Z,52.44
2023-04-29T05:02:19.868Z,52.47
2023-04-29T05:04:11.580Z,52.24
2023-04-29T05:13:00.705Z,51.59
2023-04-29T05:24:40.133Z,50.92
2023-04-29T05:31:00.518Z,50.59
2023-04-29T05:32:25.751Z,50.59
2023-04-29T05:48:30.335Z,48.47
2023-04-29T05:49:55.285Z,48.27
2023-04-29T05:51:19.858Z,47.81
2023-04-29T05:53:47.362Z,47.29
2023-04-29T05:55:02.907Z,47.05
2023-04-29T05:56:28.055Z,46.56
2023-04-29T05:57:53.058Z,46.29
2023-04-29T06:02:23.965Z,46.09
2023-04-29T06:03:46.882Z,45.81
2023-04-29T06:05:31.788Z,45.37
2023-04-29T06:07:17.720Z,45.44
2023-04-29T06:08:45.880Z,45.24
2023-04-29T06:10:16.377Z,45.06
2023-04-29T06:11:58.419Z,44.79
2023-04-29T06:13:48.507Z,44.60
2023-04-29T06:15:29.889Z,44.72
2023-04-29T06:16:52.988Z,44.52
2023-04-29T06:18:23.598Z,44.35
2023-04-29T06:20:11.904Z,44.35
2023-04-29T06:21:53.984Z,44.60
2023-04-29T06:23:15.745Z,44.60
2023-04-29T06:24:41.266Z,44.58
2023-04-29T06:26:07.746Z,44.74
2023-04-29T06:27:36.714Z,45.00
2023-04-29T06:29:12.565Z,45.27
2023-04-29T06:30:57.468Z,45.47
2023-04-29T06:33:12.594Z,45.82
2023-04-29T06:34:41.003Z,46.56
2023-04-29T06:37:36.408Z,46.80
2023-04-29T06:39:19.780Z,47.10
2023-04-29T06:41:04.805Z,48.12
2023-04-29T06:44:11.011Z,49.06
2023-04-29T06:46:34.296Z,49.60
2023-04-29T06:49:18.513Z,49.48
2023-04-29T06:56:47.630Z,52.18
2023-04-29T06:58:24.088Z,53.31
2023-04-29T07:00:11.093Z,54.21
2023-04-29T07:04:51.652Z,54.65
2023-04-29T07:06:24.999Z,55.74
2023-04-29T07:07:57.922Z,56.63
2023-04-29T07:09:29.705Z,56.61
2023-04-29T07:11:28.811Z,56.96
2023-04-29T07:12:56.902Z,57.45
2023-04-29T07:14:31.724Z,58.31
2023-04-29T07:18:21.446Z,58.13
2023-04-29T07:29:50.283Z,57.55
2023-04-29T07:31:29.945Z,57.46
2023-04-29T07:33:49.697Z,57.94
2023-04-29T07:35:18.983Z,58.32
2023-04-29T07:36:52.208Z,58.96
2023-04-29T07:38:15.931Z,59.36
2023-04-29T07:39:49.645Z,59.71
2023-04-29T07:41:17.040Z,59.37
2023-04-29T07:42:42.828Z,59.73
2023-04-29T07:44:20.123Z,60.34
2023-04-29T07:45:53.027Z,59.80
2023-04-29T07:47:38.811Z,59.67
2023-04-29T07:49:03.726Z,60.13
2023-04-29T07:56:54.986Z,59.12
2023-04-29T07:58:43.832Z,58.57
2023-04-29T08:00:29.140Z,58.49
2023-04-29T08:02:05.446Z,58.54
2023-04-29T08:03:39.887Z,58.52
2023-04-29T08:06:10.751Z,59.08
2023-04-29T08:10:32.169Z,58.76
2023-04-29T08:34:59.538Z,61.19
2023-04-29T09:07:08.896Z,61.75
2023-04-29T09:10:54.899Z,60.73
2023-04-29T09:12:20.998Z,60.92
2023-04-29T09:13:44.938Z,60.38
2023-04-29T09:15:47.220Z,60.32
2023-04-29T09:17:51.189Z,59.38
2023-04-29T09:23:10.629Z,56.84
2023-04-29T09:25:13.435Z,55.05
2023-04-29T09:32:54.960Z,48.39
2023-04-29T09:43:05.352Z,47.43
2023-04-29T09:45:09.740Z,46.48
2023-04-29T09:46:45.496Z,46.08
2023-04-29T09:48:45.129Z,46.43
2023-04-29T09:50:19.941Z,46.03
2023-04-29T09:52:05.335Z,45.95
2023-04-29T09:53:38.184Z,45.63
2023-04-29T09:55:09.312Z,45.36
2023-04-29T09:56:57.023Z,45.00
2023-04-29T09:58:51.614Z,45.45
2023-04-29T10:00:59.714Z,45.72
2023-04-29T10:03:25.940Z,46.46
2023-04-29T10:07:39.144Z,46.66
2023-04-29T10:10:05.855Z,46.79
2023-04-29T10:12:26.224Z,46.97
2023-04-29T10:14:27.714Z,46.46
2023-04-29T10:16:12.026Z,45.71
2023-04-29T10:17:49.618Z,45.24
2023-04-29T10:19:50.852Z,45.54
2023-04-29T10:22:48.754Z,44.91
2023-04-29T10:25:26.462Z,44.71
2023-04-29T10:26:54.202Z,42.60
2023-04-29T10:28:49.200Z,40.37
2023-04-29T10:30:16.854Z,35.90
2023-04-29T10:31:42.844Z,36.38
2023-04-29T10:33:10.128Z,36.72
2023-04-29T10:34:40.488Z,36.37
2023-04-29T10:36:14.171Z,36.16
2023-04-29T10:38:09.219Z,35.34
2023-04-29T10:39:53.998Z,35.59
2023-04-29T10:41:29.624Z,35.43
2023-04-29T10:43:15.104Z,36.54
2023-04-29T10:45:30.573Z,36.18
2023-04-29T10:47:34.539Z,36.86
2023-04-29T10:49:23.068Z,37.38
2023-04-29T10:51:23.808Z,36.84
2023-04-29T10:53:04.242Z,36.60
2023-04-29T10:54:59.499Z,36.42
2023-04-29T10:56:57.142Z,36.14
2023-04-29T10:59:43.762Z,36.54
2023-04-29T11:01:48.728Z,36.24
2023-04-29T11:04:04.159Z,36.06
2023-04-29T11:08:41.478Z,36.72
2023-04-29T11:10:52.851Z,36.97
2023-04-29T11:14:39.357Z,36.56
2023-04-29T11:17:20.871Z,37.17
2023-04-29T11:19:20.957Z,36.71
2023-04-29T11:21:17.936Z,37.10
2023-04-29T11:23:03.067Z,37.28
2023-04-29T11:24:44.054Z,38.04
2023-04-29T11:26:14.675Z,37.73
2023-04-29T11:27:58.713Z,37.29
2023-04-29T11:29:39.076Z,37.46
2023-04-29T11:31:03.923Z,37.63
2023-04-29T11:32:27.831Z,38.24
2023-04-29T11:34:22.218Z,38.72
2023-04-29T11:36:55.149Z,38.61
2023-04-29T11:40:12.182Z,39.07
2023-04-29T11:43:44.037Z,39.85
2023-04-29T11:45:10.475Z,40.43
2023-04-29T11:46:37.203Z,40.10
2023-04-29T11:48:18.517Z,40.61
2023-04-29T11:49:43.098Z,40.33
2023-04-29T11:51:10.662Z,39.47
2023-04-29T11:52:40.969Z,39.16
2023-04-29T11:54:36.341Z,39.22
2023-04-29T11:58:27.755Z,39.32
2023-04-29T12:00:16.958Z,38.49
2023-04-29T12:01:44.874Z,37.95
2023-04-29T12:47:04.989Z,44.06
2023-04-29T12:56:43.026Z,43.01
2023-04-29T13:16:28.855Z,43.33
2023-04-29T13:18:16.941Z,42.99
2023-04-29T13:20:23.309Z,42.97
2023-04-29T13:22:29.878Z,43.39
2023-04-29T13:45:52.286Z,44.76
2023-04-29T13:51:00.968Z,45.66
2023-04-29T13:52:58.358Z,46.15
2023-04-29T13:56:11.575Z,46.39
2023-04-29T14:07:04.851Z,46.84
2023-04-29T14:08:53.479Z,46.27
2023-04-29T14:10:46.431Z,45.79
2023-04-29T14:12:46.417Z,45.79
2023-04-29T14:17:36.912Z,44.79
2023-04-29T14:19:22.695Z,44.68
2023-04-29T14:20:57.213Z,45.04
2023-04-29T14:22:41.758Z,44.33
2023-04-29T14:24:29.980Z,44.20
2023-04-29T14:26:39.058Z,43.43
2023-04-29T14:28:22.006Z,42.48
2023-04-29T14:29:54.107Z,42.04
2023-04-29T14:31:29.757Z,41.74
2023-04-29T14:33:14.107Z,41.09
2023-04-29T14:34:41.977Z,41.51
2023-04-29T14:36:08.652Z,41.33
2023-04-29T14:38:02.047Z,40.67
2023-04-29T14:39:38.654Z,40.87
2023-04-29T14:43:18.436Z,40.81
2023-04-29T14:44:46.622Z,41.42
2023-04-29T14:46:34.996Z,41.21
2023-04-29T14:48:02.271Z,41.52
2023-04-29T14:51:14.537Z,41.43
2023-04-29T14:52:41.235Z,42.02
2023-04-29T14:54:16.953Z,41.64
2023-04-29T14:56:01.631Z,42.29
2023-04-29T14:57:36.157Z,42.25
2023-04-29T14:59:09.969Z,42.21
2023-04-29T15:00:42.796Z,42.50
2023-04-29T15:02:11.882Z,42.70
2023-04-29T15:03:44.323Z,43.55
2023-04-29T15:05:08.060Z,44.48
2023-04-29T15:06:41.753Z,45.20
2023-04-29T15:08:09.584Z,45.96
2023-04-29T15:10:09.639Z,46.62
2023-04-29T15:11:38.313Z,47.35
2023-04-29T15:13:02.287Z,48.19
2023-04-29T15:14:33.826Z,48.81
2023-04-29T15:15:56.433Z,49.39
2023-04-29T15:17:20.045Z,50.30
2023-04-29T15:19:02.704Z,50.69
2023-04-29T15:20:39.868Z,51.13
2023-04-29T15:22:10.631Z,51.55
2023-04-29T15:23:33.681Z,51.58
2023-04-29T15:25:36.187Z,51.32
2023-04-29T15:27:21.702Z,50.90
2023-04-29T15:28:58.549Z,51.11
2023-04-29T15:30:37.461Z,51.10
2023-04-29T15:32:28.682Z,51.44
2023-04-29T15:33:55.107Z,51.41
2023-04-29T15:35:17.670Z,51.90
2023-04-29T15:36:43.183Z,52.09
2023-04-29T15:38:10.336Z,52.30
2023-04-29T15:39:36.333Z,52.62
2023-04-29T15:42:24.397Z,52.89
2023-04-29T15:43:26.875Z,52.89
2023-04-29T15:44:55.136Z,53.68
2023-04-29T15:46:45.620Z,54.42
2023-04-29T15:48:33.415Z,54.93
2023-04-29T15:52:42.287Z,54.89
2023-04-29T15:54:14.546Z,54.80
2023-04-29T16:00:45.159Z,55.53
2023-04-29T16:02:25.096Z,55.68
2023-04-29T16:03:52.597Z,55.91
2023-04-29T16:05:31.937Z,56.51
2023-04-29T16:07:11.817Z,56.74
2023-04-29T16:08:40.045Z,56.99
2023-04-29T16:10:13.903Z,57.23
2023-04-29T16:13:00.127Z,57.68
2023-04-29T16:14:24.356Z,57.36
2023-04-29T16:15:48.861Z,57.99
2023-04-29T16:18:00.707Z,58.47
2023-04-29T16:21:39.669Z,58.42
2023-04-29T16:23:17.839Z,58.83
2023-04-29T16:31:39.673Z,59.01
2023-04-29T16:36:04.451Z,59.39
2023-04-29T16:37:41.925Z,59.65
2023-04-29T16:39:16.179Z,60.18
2023-04-29T16:40:45.461Z,60.30
2023-04-29T16:42:36.874Z,60.48
2023-04-29T16:44:15.359Z,60.41
2023-04-29T16:46:44.339Z,60.63
2023-04-29T16:48:21.830Z,60.58
2023-04-29T16:50:15.915Z,60.91
2023-04-29T16:51:52.915Z,60.93
2023-04-29T16:53:16.851Z,61.61
2023-04-29T16:54:45.499Z,61.86
2023-04-29T16:56:51.001Z,62.12
2023-04-29T17:00:28.815Z,62.36
2023-04-29T17:04:45.554Z,62.64
2023-04-29T17:06:19.790Z,62.89
2023-04-29T17:08:09.174Z,62.94
2023-04-29T17:09:44.811Z,62.81
2023-04-29T17:11:29.482Z,63.03
2023-04-29T17:14:08.250Z,63.28
2023-04-29T17:16:24.446Z,62.90
2023-04-29T17:18:07.218Z,62.80
2023-04-29T17:19:32.506Z,62.77
2023-04-29T17:20:56.877Z,63.00
2023-04-29T17:22:24.095Z,62.67
2023-04-29T17:23:46.675Z,62.83
2023-04-29T17:25:26.228Z,62.95
2023-04-29T17:27:01.948Z,62.83
2023-04-29T17:28:32.579Z,62.81
2023-04-29T17:30:02.715Z,62.82
2023-04-29T17:31:45.493Z,62.60
2023-04-29T17:33:17.919Z,62.53
2023-04-29T17:35:15.297Z,62.38
2023-04-29T17:37:32.697Z,62.57
2023-04-29T17:39:14.804Z,62.38
2023-04-29T17:41:17.014Z,62.42
2023-04-29T17:43:07.028Z,62.24
2023-04-29T17:49:18.586Z,62.53
2023-04-29T17:50:44.613Z,62.55
2023-04-29T17:52:13.596Z,62.65
2023-04-29T17:59:39.068Z,62.77
2023-04-29T18:01:22.178Z,62.80
2023-04-29T18:02:50.253Z,63.01
2023-04-29T18:04:44.889Z,62.69
2023-04-29T18:06:29.026Z,62.85
2023-04-29T18:08:06.980Z,62.84
2023-04-29T18:09:43.138Z,62.93
2023-04-29T18:11:57.157Z,62.90
2023-04-29T18:13:23.220Z,63.10
2023-04-29T18:17:18.887Z,63.26
2023-04-29T18:19:17.301Z,63.35
2023-04-29T18:20:53.986Z,63.46
2023-04-29T18:22:30.786Z,63.42
2023-04-29T18:23:54.161Z,63.60
2023-04-29T18:25:25.902Z,63.60
2023-04-29T18:27:04.181Z,63.58
2023-04-29T18:28:34.318Z,63.66
2023-04-29T18:30:01.224Z,63.68
2023-04-29T18:33:56.556Z,63.87
2023-04-29T18:35:38.388Z,63.78
2023-04-29T18:37:06.890Z,63.78
2023-04-29T18:38:34.509Z,63.75
2023-04-29T18:40:10.324Z,63.77
2023-04-29T18:41:46.867Z,63.87
2023-04-29T18:43:37.819Z,63.82
2023-04-29T18:45:04.951Z,63.73
2023-04-29T18:46:30.834Z,63.82
2023-04-29T18:48:17.315Z,63.88
2023-04-29T18:49:41.830Z,63.74
2023-04-29T18:51:28.248Z,63.82
2023-04-29T18:53:10.446Z,63.67
2023-04-29T18:54:41.677Z,63.67
2023-04-29T18:58:02.478Z,63.90
2023-04-29T18:59:31.686Z,64.04
2023-04-29T19:01:08.561Z,64.42
2023-04-29T19:02:35.730Z,64.57
2023-04-29T19:04:24.342Z,64.83
2023-04-29T19:06:15.596Z,64.81
2023-04-29T19:07:51.655Z,65.02
2023-04-29T19:09:16.700Z,65.26
2023-04-29T19:10:43.003Z,65.80
2023-04-29T19:12:47.656Z,65.79
2023-04-29T19:15:18.888Z,65.69
2023-04-29T19:16:56.920Z,65.46
2023-04-29T19:19:00.290Z,65.54
2023-04-29T19:20:28.097Z,65.47
2023-04-29T19:22:09.838Z,65.49
2023-04-29T19:23:46.191Z,65.66
2023-04-29T19:29:25.662Z,65.52
2023-04-29T19:30:48.980Z,65.76
2023-04-29T19:32:16.852Z,65.63
2023-04-29T19:34:08.419Z,65.63
2023-04-29T19:39:17.540Z,65.05
2023-04-29T19:40:42.729Z,65.11
2023-04-29T19:45:20.500Z,65.50
2023-04-29T19:47:04.109Z,65.51
2023-04-29T19:49:03.192Z,65.69
2023-04-29T19:51:22.889Z,65.86
2023-04-29T19:53:49.752Z,65.94
2023-04-29T19:55:20.613Z,66.24
2023-04-29T20:00:15.358Z,66.03
2023-04-29T20:02:02.137Z,66.26
2023-04-29T20:03:27.884Z,66.13
2023-04-29T20:05:21.130Z,65.98
2023-04-29T20:06:57.340Z,66.35
2023-04-29T20:08:28.443Z,66.14
2023-04-29T20:09:57.254Z,66.14
2023-04-29T20:11:53.187Z,65.97
2023-04-29T20:13:18.064Z,66.30
2023-04-29T20:14:46.377Z,66.20
2023-04-29T20:16:27.867Z,66.44
2023-04-29T20:17:59.759Z,65.96
2023-04-29T20:19:29.322Z,66.54
2023-04-29T20:21:16.892Z,66.46
2023-04-29T20:23:04.263Z,66.47
2023-04-29T20:24:27.224Z,66.20
2023-04-29T20:26:06.647Z,66.40
2023-04-29T20:28:11.795Z,66.47
2023-04-29T20:29:52.988Z,66.40
2023-04-29T20:31:24.689Z,66.53
2023-04-29T20:33:18.315Z,66.69
2023-04-29T20:36:50.018Z,66.07
2023-04-29T20:38:15.606Z,66.39
2023-04-29T20:40:13.696Z,66.35
2023-04-29T20:41:52.079Z,66.20
2023-04-29T20:43:26.924Z,66.01
2023-04-29T20:44:54.187Z,65.93
2023-04-29T20:46:20.315Z,65.97
2023-04-29T20:47:58.772Z,65.86
2023-04-29T20:49:40.123Z,65.78
2023-04-29T21:01:23.318Z,65.39
2023-04-29T21:03:14.827Z,65.23
2023-04-29T21:04:51.415Z,65.26
2023-04-29T21:06:18.293Z,65.32
2023-04-29T21:07:43.696Z,65.27
2023-04-29T21:09:06.820Z,65.21
2023-04-29T21:10:36.792Z,65.25
2023-04-29T21:15:13.998Z,64.87
2023-04-29T21:16:38.463Z,64.99
2023-04-29T21:21:58.942Z,64.79
2023-04-29T21:23:31.893Z,64.77
2023-04-29T21:25:02.870Z,64.88
2023-04-29T21:26:29.537Z,64.99
2023-04-29T21:28:17.013Z,64.72
2023-04-29T21:30:15.755Z,64.53
2023-04-29T21:32:41.341Z,64.73
2023-04-29T21:34:13.291Z,64.65
2023-04-29T21:35:39.248Z,64.60
2023-04-29T21:37:16.793Z,64.72
2023-04-29T21:38:45.545Z,64.48
2023-04-29T21:40:19.060Z,64.61
2023-04-29T21:41:48.850Z,64.55
2023-04-29T21:43:18.561Z,64.62
2023-04-29T21:44:52.886Z,64.48
2023-04-29T21:46:18.833Z,64.38
2023-04-29T21:47:45.998Z,64.47
2023-04-29T21:49:08.795Z,64.62
2023-04-29T21:50:31.581Z,64.57
2023-04-29T21:51:54.158Z,64.74
2023-04-29T21:53:16.800Z,64.68
2023-04-29T21:54:39.903Z,64.60
2023-04-29T21:56:02.211Z,64.47
2023-04-29T21:57:35.554Z,64.63
2023-04-29T21:59:04.962Z,64.41
2023-04-29T22:00:33.452Z,64.30
2023-04-29T22:02:00.624Z,64.38
2023-04-29T22:03:23.235Z,64.32
2023-04-29T22:04:45.592Z,64.31
2023-04-29T22:06:10.431Z,64.20
2023-04-29T22:07:32.387Z,64.24
2023-04-29T22:08:54.913Z,63.94
2023-04-29T22:10:17.802Z,63.65
2023-04-29T22:11:50.326Z,63.48
2023-04-29T22:13:12.998Z,63.01
2023-04-29T22:14:38.331Z,62.91
2023-04-29T22:16:07.786Z,62.73
2023-04-29T22:17:33.826Z,62.62
2023-04-29T22:19:00.908Z,62.39
2023-04-29T22:20:34.669Z,62.27
2023-04-29T22:21:58.289Z,62.09
2023-04-29T22:23:22.899Z,62.05
2023-04-29T22:24:51.423Z,61.92
2023-04-29T22:26:14.190Z,61.92
2023-04-29T22:27:43.793Z,61.77
2023-04-29T22:29:11.898Z,61.39
2023-04-29T22:30:45.767Z,61.44
2023-04-29T22:32:08.640Z,61.32
2023-04-29T22:33:37.174Z,61.36
2023-04-29T22:35:01.422Z,60.74
2023-04-29T22:36:27.502Z,60.60
2023-04-29T22:37:49.208Z,60.51
2023-04-29T22:39:13.260Z,60.45
2023-04-29T22:40:55.767Z,60.37
2023-04-29T22:42:42.213Z,60.80
2023-04-29T22:44:06.842Z,60.52
2023-04-29T22:45:29.430Z,60.21
2023-04-29T22:46:52.319Z,60.23
2023-04-29T22:48:13.689Z,59.91
2023-04-29T22:49:36.597Z,59.99
2023-04-29T22:51:04.116Z,59.89
2023-04-29T22:52:27.179Z,59.75
2023-04-29T22:53:49.863Z,59.54
2023-04-29T22:55:11.344Z,59.34
2023-04-29T22:56:34.274Z,59.13
2023-04-29T22:57:55.701Z,58.96
2023-04-29T22:59:18.169Z,58.94
2023-04-29T23:00:42.276Z,58.66
2023-04-29T23:02:04.824Z,58.64
2023-04-29T23:03:27.761Z,58.59
2023-04-29T23:04:49.076Z,58.57
2023-04-29T23:06:15.501Z,58.59
2023-04-29T23:07:41.549Z,58.90
2023-04-29T23:09:12.555Z,58.72
2023-04-29T23:11:33.023Z,58.47
2023-04-29T23:13:18.267Z,58.61
2023-04-29T23:14:58.467Z,58.72
2023-04-29T23:16:37.826Z,58.62
2023-04-29T23:18:05.618Z,58.53
2023-04-29T23:19:38.567Z,58.83
2023-04-29T23:21:18.979Z,58.59
2023-04-29T23:22:42.826Z,58.78
2023-04-29T23:24:05.790Z,58.64
2023-04-29T23:25:28.374Z,58.63
2023-04-29T23:26:51.454Z,59.04
2023-04-29T23:28:14.298Z,58.83
2023-04-29T23:29:41.640Z,58.72
2023-04-29T23:31:04.526Z,58.54
2023-04-29T23:32:25.805Z,58.60
2023-04-29T23:33:48.903Z,58.47
2023-04-29T23:35:13.893Z,58.41
2023-04-29T23:36:40.802Z,58.46
2023-04-29T23:38:04.820Z,58.16
2023-04-29T23:39:27.582Z,58.14
2023-04-29T23:40:50.235Z,58.24
2023-04-29T23:42:28.131Z,58.40
2023-04-29T23:43:52.626Z,58.17
2023-04-29T23:45:15.655Z,58.34
2023-04-29T23:46:37.225Z,58.40
2023-04-29T23:48:01.356Z,58.23
2023-04-29T23:49:22.551Z,57.92
2023-04-29T23:50:44.869Z,58.42
2023-04-29T23:52:10.435Z,58.23
2023-04-29T23:53:33.104Z,58.06
2023-04-29T23:54:54.960Z,58.14
2023-04-29T23:56:40.525Z,58.18
2023-04-29T23:58:03.525Z,58.19
2023-04-29T23:59:24.904Z,58.33
